createdAt,value
2023-04-15T00:01:08.681Z,95144.25
2023-04-15T00:03:35.810Z,95143.84
2023-04-15T00:06:02.920Z,95169.78
2023-04-15T00:08:30.462Z,95175.59
2023-04-15T00:10:59.650Z,95172.53
2023-04-15T00:13:26.555Z,95134.13
2023-04-15T00:15:53.529Z,95166.66
2023-04-15T00:18:20.472Z,95141.09
2023-04-15T00:20:47.488Z,95163.06
2023-04-15T00:23:14.394Z,95155.16
2023-04-15T00:25:41.429Z,95160.53
2023-04-15T00:28:08.847Z,95164.88
2023-04-15T00:30:35.926Z,95146.00
2023-04-15T00:33:04.102Z,95140.91
2023-04-15T00:35:34.703Z,95160.19
2023-04-15T00:38:01.980Z,95133.13
2023-04-15T00:40:29.509Z,95132.28
2023-04-15T00:42:56.878Z,95104.84
2023-04-15T00:45:24.371Z,95133.16
2023-04-15T00:47:51.646Z,95121.09
2023-04-15T00:50:18.664Z,95115.25
2023-04-15T00:52:45.845Z,95137.59
2023-04-15T00:55:13.345Z,95140.47
2023-04-15T00:57:41.446Z,95109.03
2023-04-15T01:00:09.797Z,95123.34
2023-04-15T01:02:37.193Z,95097.44
2023-04-15T01:05:05.095Z,95094.91
2023-04-15T01:07:32.406Z,95126.41
2023-04-15T01:09:59.908Z,95133.91
2023-04-15T01:12:27.813Z,95098.78
2023-04-15T01:14:55.614Z,95109.50
2023-04-15T01:17:22.706Z,95088.66
2023-04-15T01:19:49.806Z,95123.78
2023-04-15T01:22:17.403Z,95102.59
2023-04-15T01:24:56.567Z,95120.03
2023-04-15T01:27:23.585Z,95119.06
2023-04-15T01:29:50.689Z,95115.81
2023-04-15T01:32:17.623Z,95090.91
2023-04-15T01:34:44.769Z,95107.97
2023-04-15T01:37:12.006Z,95103.63
2023-04-15T01:39:39.747Z,95109.59
2023-04-15T01:42:07.167Z,95074.72
2023-04-15T01:44:34.069Z,95073.78
2023-04-15T01:47:01.203Z,95095.09
2023-04-15T01:49:28.628Z,95090.38
2023-04-15T01:51:55.480Z,95101.69
2023-04-15T01:54:22.770Z,95075.50
2023-04-15T01:56:51.424Z,95090.97
2023-04-15T01:59:18.276Z,95069.00
2023-04-15T02:01:45.622Z,95093.25
2023-04-15T02:04:17.494Z,95102.91
2023-04-15T02:06:44.575Z,95074.72
2023-04-15T02:09:12.553Z,95065.34
2023-04-15T02:11:39.641Z,95072.69
2023-04-15T02:14:06.646Z,95063.38
2023-04-15T02:16:34.020Z,95067.97
2023-04-15T02:19:01.610Z,95051.41
2023-04-15T02:21:28.682Z,95061.53
2023-04-15T02:23:56.180Z,95048.97
2023-04-15T02:26:23.181Z,95066.59
2023-04-15T02:28:51.622Z,95077.47
2023-04-15T02:31:18.554Z,95086.81
2023-04-15T02:33:45.741Z,95060.69
2023-04-15T02:36:12.720Z,95081.94
2023-04-15T02:38:42.548Z,95086.06
2023-04-15T02:41:10.631Z,95085.06
2023-04-15T02:43:40.115Z,95082.59
2023-04-15T02:46:08.231Z,95052.75
2023-04-15T02:48:35.177Z,95053.84
2023-04-15T02:51:17.695Z,95060.38
2023-04-15T02:53:44.559Z,95071.34
2023-04-15T02:56:12.054Z,95055.38
2023-04-15T02:58:39.717Z,95061.00
2023-04-15T03:01:07.826Z,95045.75
2023-04-15T03:03:35.628Z,95060.28
2023-04-15T03:06:02.700Z,95057.53
2023-04-15T03:08:29.953Z,95060.25
2023-04-15T03:11:00.976Z,95030.72
2023-04-15T03:13:27.929Z,95065.84
2023-04-15T03:15:56.888Z,95073.56
2023-04-15T03:18:23.890Z,95073.44
2023-04-15T03:20:50.863Z,95074.28
2023-04-15T03:23:17.984Z,95074.91
2023-04-15T03:25:45.681Z,95051.41
2023-04-15T03:28:12.647Z,95021.47
2023-04-15T03:30:39.541Z,95073.69
2023-04-15T03:33:06.436Z,95078.75
2023-04-15T03:35:33.496Z,95048.44
2023-04-15T03:38:00.364Z,95058.84
2023-04-15T03:40:27.347Z,95063.81
2023-04-15T03:42:54.251Z,95067.13
2023-04-15T03:45:21.106Z,95069.44
2023-04-15T03:47:48.125Z,95046.41
2023-04-15T03:50:15.030Z,95059.81
2023-04-15T03:52:41.912Z,95038.50
2023-04-15T03:55:09.606Z,95055.06
2023-04-15T03:57:39.322Z,95062.91
2023-04-15T04:00:07.952Z,95059.47
2023-04-15T04:02:39.268Z,95049.38
2023-04-15T04:05:06.577Z,95064.94
2023-04-15T04:07:33.433Z,95063.81
2023-04-15T04:10:00.301Z,95060.75
2023-04-15T04:12:27.174Z,95049.81
2023-04-15T04:14:54.020Z,95072.75
2023-04-15T04:17:20.958Z,95054.94
2023-04-15T04:19:47.874Z,95040.31
2023-04-15T04:22:14.707Z,95054.34
2023-04-15T04:24:41.622Z,95043.19
2023-04-15T04:27:08.454Z,95080.34
2023-04-15T04:29:35.505Z,95059.16
2023-04-15T04:32:02.420Z,95078.06
2023-04-15T04:34:29.463Z,95085.22
2023-04-15T04:36:56.874Z,95065.88
2023-04-15T04:39:23.859Z,95081.28
2023-04-15T04:41:52.407Z,95086.16
2023-04-15T04:44:19.352Z,95074.97
2023-04-15T04:46:46.189Z,95078.72
2023-04-15T04:49:13.001Z,95064.84
2023-04-15T04:51:39.954Z,95096.41
2023-04-15T04:54:06.820Z,95068.22
2023-04-15T04:56:34.899Z,95093.25
2023-04-15T04:59:02.259Z,95098.94
2023-04-15T05:01:29.355Z,95071.91
2023-04-15T05:03:56.708Z,95090.34
2023-04-15T05:06:23.838Z,95102.88
2023-04-15T05:08:50.690Z,95099.03
2023-04-15T05:11:17.682Z,95111.56
2023-04-15T05:13:44.495Z,95103.09
2023-04-15T05:16:11.412Z,95117.03
2023-04-15T05:18:38.300Z,95111.19
2023-04-15T05:21:05.732Z,95116.00
2023-04-15T05:23:32.840Z,95113.41
2023-04-15T05:26:01.713Z,95098.38
2023-04-15T05:28:28.558Z,95120.47
2023-04-15T05:30:55.696Z,95089.75
2023-04-15T05:33:23.294Z,95126.91
2023-04-15T05:35:50.118Z,95091.50
2023-04-15T05:38:17.091Z,95073.22
2023-04-15T05:40:44.069Z,95119.78
2023-04-15T05:43:10.976Z,95104.63
2023-04-15T05:45:37.807Z,95096.66
2023-04-15T05:48:04.760Z,95114.81
2023-04-15T05:50:31.756Z,95116.66
2023-04-15T05:52:58.591Z,95093.84
2023-04-15T05:55:26.002Z,95118.38
2023-04-15T05:57:52.820Z,95121.00
2023-04-15T06:00:20.435Z,95108.84
2023-04-15T06:02:47.510Z,95118.69
2023-04-15T06:05:14.687Z,95094.88
2023-04-15T06:07:41.952Z,95096.72
2023-04-15T06:10:09.519Z,95115.19
2023-04-15T06:12:36.711Z,95115.50
2023-04-15T06:15:06.927Z,95099.09
2023-04-15T06:17:33.760Z,95099.53
2023-04-15T06:20:00.977Z,95103.56
2023-04-15T06:22:27.882Z,95127.19
2023-04-15T06:24:54.832Z,95108.47
2023-04-15T06:27:23.251Z,95121.94
2023-04-15T06:29:50.092Z,95104.16
2023-04-15T06:32:17.006Z,95098.78
2023-04-15T06:34:43.894Z,95121.81
2023-04-15T06:37:15.980Z,95127.47
2023-04-15T06:39:43.694Z,95129.94
2023-04-15T06:42:11.599Z,95116.72
2023-04-15T06:44:38.595Z,95134.09
2023-04-15T06:47:05.719Z,95108.25
2023-04-15T06:49:33.979Z,95116.41
2023-04-15T06:52:01.164Z,95111.34
2023-04-15T06:54:28.092Z,95132.09
2023-04-15T06:56:54.976Z,95141.44
2023-04-15T06:59:21.821Z,95152.22
2023-04-15T07:01:48.742Z,95140.69
2023-04-15T07:04:15.673Z,95116.59
2023-04-15T07:06:43.120Z,95130.28
2023-04-15T07:09:10.101Z,95135.78
2023-04-15T07:11:37.024Z,95157.75
2023-04-15T07:14:03.949Z,95144.06
2023-04-15T07:16:31.230Z,95135.91
2023-04-15T07:18:58.502Z,95127.25
2023-04-15T07:21:26.045Z,95150.00
2023-04-15T07:23:52.884Z,95122.25
2023-04-15T07:26:19.845Z,95076.03
2023-04-15T07:28:47.669Z,95144.34
2023-04-15T07:31:15.121Z,95112.22
2023-04-15T07:33:42.007Z,95140.78
2023-04-15T07:36:10.798Z,95143.69
2023-04-15T07:38:37.850Z,95157.53
2023-04-15T07:41:05.166Z,95152.50
2023-04-15T07:43:32.071Z,95147.72
2023-04-15T07:45:58.924Z,95118.69
2023-04-15T07:48:25.926Z,95131.25
2023-04-15T07:50:53.012Z,95161.84
2023-04-15T07:53:20.546Z,95123.88
2023-04-15T07:55:47.382Z,95129.88
2023-04-15T07:58:14.229Z,95160.63
2023-04-15T08:00:41.120Z,95163.97
2023-04-15T08:03:08.163Z,95173.09
2023-04-15T08:05:35.359Z,95172.44
2023-04-15T08:08:02.212Z,95163.53
2023-04-15T08:10:30.292Z,95176.59
2023-04-15T08:12:57.784Z,95169.81
2023-04-15T08:15:24.973Z,95163.97
2023-04-15T08:17:51.875Z,95169.03
2023-04-15T08:20:19.231Z,95144.78
2023-04-15T08:22:48.035Z,95155.94
2023-04-15T08:25:14.953Z,95177.03
2023-04-15T08:27:42.151Z,95183.03
2023-04-15T08:30:09.834Z,95189.16
2023-04-15T08:32:36.673Z,95135.59
2023-04-15T08:35:04.011Z,95154.50
2023-04-15T08:37:30.861Z,95171.72
2023-04-15T08:39:57.746Z,95168.03
2023-04-15T08:42:32.853Z,95192.88
2023-04-15T08:45:01.999Z,95202.47
2023-04-15T08:47:34.697Z,95180.44
2023-04-15T08:50:04.600Z,95183.09
2023-04-15T08:52:32.484Z,95213.50
2023-04-15T08:55:00.585Z,95209.22
2023-04-15T08:57:28.880Z,95191.69
2023-04-15T08:59:59.199Z,95206.75
2023-04-15T09:02:27.620Z,95209.19
2023-04-15T09:04:54.557Z,95205.69
2023-04-15T09:07:21.561Z,95212.25
2023-04-15T09:09:49.059Z,95184.00
2023-04-15T09:12:17.263Z,95193.75
2023-04-15T09:14:47.506Z,95219.28
2023-04-15T09:17:19.902Z,95223.72
2023-04-15T09:19:46.907Z,95214.34
2023-04-15T09:22:14.162Z,95223.75
2023-04-15T09:24:43.520Z,95213.47
2023-04-15T09:27:10.448Z,95211.16
2023-04-15T09:29:37.586Z,95226.84
2023-04-15T09:32:14.757Z,95219.09
2023-04-15T09:34:42.133Z,95242.63
2023-04-15T09:37:11.191Z,95242.31
2023-04-15T09:39:50.175Z,95223.44
2023-04-15T09:42:24.679Z,95214.97
2023-04-15T09:44:53.278Z,95243.38
2023-04-15T09:47:33.055Z,95249.47
2023-04-15T09:50:01.702Z,95213.84
2023-04-15T09:52:29.130Z,95221.56
2023-04-15T09:54:58.826Z,95239.22
2023-04-15T09:57:25.999Z,95189.41
2023-04-15T09:59:53.115Z,95202.88
2023-04-15T10:02:23.405Z,95220.16
2023-04-15T10:04:51.982Z,95240.00
2023-04-15T10:07:20.952Z,95208.69
2023-04-15T10:09:49.427Z,95216.75
2023-04-15T10:12:17.983Z,95247.78
2023-04-15T10:14:44.977Z,95213.25
2023-04-15T10:17:15.092Z,95247.38
2023-04-15T10:19:42.596Z,95247.88
2023-04-15T10:22:09.506Z,95244.13
2023-04-15T10:24:37.593Z,95250.38
2023-04-15T10:27:06.081Z,95241.47
2023-04-15T10:29:33.333Z,95251.81
2023-04-15T10:32:02.117Z,95250.91
2023-04-15T10:34:30.174Z,95189.59
2023-04-15T10:37:01.793Z,95234.66
2023-04-15T10:39:34.922Z,95255.47
2023-04-15T10:42:15.725Z,95257.38
2023-04-15T10:44:44.690Z,95258.91
2023-04-15T10:47:13.549Z,95253.88
2023-04-15T10:49:48.960Z,95266.94
2023-04-15T10:52:17.895Z,95262.47
2023-04-15T10:54:45.110Z,95246.34
2023-04-15T10:57:22.752Z,95274.09
2023-04-15T10:59:59.115Z,95273.06
2023-04-15T11:02:44.391Z,95270.78
2023-04-15T11:05:12.906Z,95272.75
2023-04-15T11:07:58.943Z,95280.06
2023-04-15T11:10:26.155Z,95270.88
2023-04-15T11:13:22.216Z,95279.50
2023-04-15T11:15:50.019Z,95271.88
2023-04-15T11:18:16.989Z,95271.84
2023-04-15T11:20:48.423Z,95261.50
2023-04-15T11:23:16.262Z,95280.47
2023-04-15T11:25:46.392Z,95292.13
2023-04-15T11:28:13.968Z,95287.88
2023-04-15T11:30:42.713Z,95277.00
2023-04-15T11:33:12.477Z,95277.06
2023-04-15T11:35:42.187Z,95272.06
2023-04-15T11:38:14.472Z,95300.47
2023-04-15T11:40:44.528Z,95303.78
2023-04-15T11:43:20.597Z,95306.16
2023-04-15T11:45:57.023Z,95302.78
2023-04-15T11:48:26.438Z,95305.91
2023-04-15T11:50:57.366Z,95310.78
2023-04-15T11:53:25.259Z,95318.31
2023-04-15T11:55:53.779Z,95294.19
2023-04-15T11:58:25.780Z,95324.72
2023-04-15T12:01:03.156Z,95326.63
2023-04-15T12:03:41.826Z,95330.63
2023-04-15T12:06:22.101Z,95292.63
2023-04-15T12:09:07.383Z,95324.75
2023-04-15T12:11:35.762Z,95331.69
2023-04-15T12:14:10.831Z,95324.88
2023-04-15T12:16:48.833Z,95336.38
2023-04-15T12:19:19.146Z,95317.63
2023-04-15T12:21:48.245Z,95338.09
2023-04-15T12:24:15.728Z,95335.34
2023-04-15T12:26:57.382Z,95352.03
2023-04-15T12:29:28.852Z,95321.97
2023-04-15T12:31:59.346Z,95347.34
2023-04-15T12:34:30.660Z,95324.97
2023-04-15T12:36:59.162Z,95342.41
2023-04-15T12:39:30.629Z,95366.69
2023-04-15T12:41:58.096Z,95348.72
2023-04-15T12:44:24.951Z,95339.72
2023-04-15T12:46:55.908Z,95336.31
2023-04-15T12:49:24.575Z,95377.38
2023-04-15T12:51:55.224Z,95378.78
2023-04-15T12:54:22.436Z,95346.00
2023-04-15T12:56:50.868Z,95382.56
2023-04-15T12:59:20.574Z,95393.31
2023-04-15T13:01:48.709Z,95392.56
2023-04-15T13:04:16.896Z,95370.84
2023-04-15T13:06:44.165Z,95398.47
2023-04-15T13:09:10.996Z,95394.56
2023-04-15T13:11:37.988Z,95393.88
2023-04-15T13:14:07.417Z,95392.06
2023-04-15T13:16:35.222Z,95409.16
2023-04-15T13:19:03.666Z,95414.97
2023-04-15T13:21:31.564Z,95410.56
2023-04-15T13:23:58.482Z,95367.75
2023-04-15T13:26:25.417Z,95406.44
2023-04-15T13:28:52.345Z,95401.34
2023-04-15T13:31:19.280Z,95418.06
2023-04-15T13:33:46.368Z,95426.47
2023-04-15T13:36:13.362Z,95383.13
2023-04-15T13:38:40.239Z,95424.50
2023-04-15T13:41:09.621Z,95425.38
2023-04-15T13:43:36.868Z,95401.34
2023-04-15T13:46:04.309Z,95430.50
2023-04-15T13:48:31.874Z,95392.97
2023-04-15T13:50:58.937Z,95424.34
2023-04-15T13:53:37.685Z,95423.22
2023-04-15T13:56:08.179Z,95405.16
2023-04-15T13:58:36.688Z,95437.38
2023-04-15T14:01:05.799Z,95436.06
2023-04-15T14:03:35.206Z,95385.63
2023-04-15T14:06:02.397Z,95421.09
2023-04-15T14:08:30.269Z,95444.47
2023-04-15T14:10:57.972Z,95427.31
2023-04-15T14:13:25.082Z,95435.06
2023-04-15T14:15:51.992Z,95441.19
2023-04-15T14:18:18.905Z,95450.47
2023-04-15T14:20:45.898Z,95421.31
2023-04-15T14:23:15.643Z,95415.75
2023-04-15T14:25:42.580Z,95438.75
2023-04-15T14:28:09.409Z,95451.47
2023-04-15T14:30:36.386Z,95423.78
2023-04-15T14:33:04.191Z,95470.28
2023-04-15T14:35:31.609Z,95446.91
2023-04-15T14:37:58.636Z,95477.41
2023-04-15T14:40:25.613Z,95453.56
2023-04-15T14:42:52.527Z,95449.47
2023-04-15T14:45:19.421Z,95467.00
2023-04-15T14:47:47.404Z,95474.25
2023-04-15T14:50:14.376Z,95471.28
2023-04-15T14:52:41.428Z,95460.50
2023-04-15T14:55:13.162Z,95483.59
2023-04-15T14:57:41.909Z,95472.81
2023-04-15T15:00:13.758Z,95474.97
2023-04-15T15:02:43.837Z,95481.44
2023-04-15T15:05:12.019Z,95493.34
2023-04-15T15:07:41.161Z,95494.75
2023-04-15T15:10:08.711Z,95495.66
2023-04-15T15:12:36.132Z,95472.84
2023-04-15T15:15:12.485Z,95493.91
2023-04-15T15:17:43.126Z,95482.03
2023-04-15T15:20:10.726Z,95488.97
2023-04-15T15:22:37.580Z,95510.25
2023-04-15T15:25:04.873Z,95514.84
2023-04-15T15:27:32.266Z,95482.59
2023-04-15T15:29:59.132Z,95508.91
2023-04-15T15:32:26.091Z,95491.59
2023-04-15T15:34:53.602Z,95521.88
2023-04-15T15:37:20.560Z,95511.84
2023-04-15T15:39:49.076Z,95523.25
2023-04-15T15:42:16.016Z,95486.78
2023-04-15T15:44:42.906Z,95458.59
2023-04-15T15:47:09.857Z,95515.31
2023-04-15T15:49:38.105Z,95539.88
2023-04-15T15:52:05.201Z,95524.13
2023-04-15T15:54:32.207Z,95524.81
2023-04-15T15:56:59.109Z,95546.69
2023-04-15T15:59:26.045Z,95552.25
2023-04-15T16:01:53.268Z,95521.31
2023-04-15T16:04:20.556Z,95533.91
2023-04-15T16:06:48.531Z,95540.53
2023-04-15T16:09:15.556Z,95538.72
2023-04-15T16:11:42.436Z,95527.44
2023-04-15T16:14:09.378Z,95546.09
2023-04-15T16:16:36.729Z,95546.28
2023-04-15T16:19:03.759Z,95529.94
2023-04-15T16:21:31.368Z,95564.59
2023-04-15T16:23:58.476Z,95544.41
2023-04-15T16:26:25.349Z,95554.88
2023-04-15T16:28:52.289Z,95567.53
2023-04-15T16:31:22.113Z,95575.69
2023-04-15T16:33:49.037Z,95583.28
2023-04-15T16:36:16.191Z,95550.59
2023-04-15T16:38:45.480Z,95577.66
2023-04-15T16:41:12.417Z,95583.31
2023-04-15T16:43:39.308Z,95574.72
2023-04-15T16:46:06.311Z,95563.09
2023-04-15T16:48:33.416Z,95571.72
2023-04-15T16:51:00.793Z,95565.41
2023-04-15T16:53:27.657Z,95596.03
2023-04-15T16:55:54.584Z,95584.84
2023-04-15T16:58:21.581Z,95566.53
2023-04-15T17:00:50.879Z,95593.00
2023-04-15T17:03:17.918Z,95581.13
2023-04-15T17:05:44.986Z,95597.22
2023-04-15T17:08:12.085Z,95610.88
2023-04-15T17:10:39.090Z,95596.28
2023-04-15T17:13:06.124Z,95603.22
2023-04-15T17:15:33.026Z,95610.63
2023-04-15T17:18:00.184Z,95619.16
2023-04-15T17:20:27.165Z,95608.22
2023-04-15T17:22:54.123Z,95533.22
2023-04-15T17:25:21.191Z,95614.28
2023-04-15T17:27:48.154Z,95612.47
2023-04-15T17:30:15.266Z,95634.69
2023-04-15T17:32:42.401Z,95624.50
2023-04-15T17:35:09.992Z,95645.78
2023-04-15T17:37:37.662Z,95641.78
2023-04-15T17:40:07.980Z,95629.94
2023-04-15T17:42:35.643Z,95653.84
2023-04-15T17:45:02.502Z,95613.59
2023-04-15T17:47:29.444Z,95615.19
2023-04-15T17:49:56.578Z,95651.84
2023-04-15T17:52:23.565Z,95621.16
2023-04-15T17:54:50.539Z,95635.34
2023-04-15T17:57:17.543Z,95643.06
2023-04-15T17:59:46.984Z,95665.28
2023-04-15T18:02:14.402Z,95640.00
2023-04-15T18:04:41.751Z,95652.66
2023-04-15T18:07:08.997Z,95649.41
2023-04-15T18:09:37.042Z,95632.91
2023-04-15T18:12:09.120Z,95641.09
2023-04-15T18:14:36.646Z,95674.53
2023-04-15T18:17:03.773Z,95672.84
2023-04-15T18:19:31.043Z,95650.94
2023-04-15T18:22:00.679Z,95680.25
2023-04-15T18:24:28.083Z,95630.59
2023-04-15T18:26:55.069Z,95670.06
2023-04-15T18:29:22.189Z,95646.00
2023-04-15T18:31:49.340Z,95674.09
2023-04-15T18:34:16.389Z,95662.22
2023-04-15T18:36:43.488Z,95668.06
2023-04-15T18:39:10.717Z,95624.44
2023-04-15T18:41:40.617Z,95700.44
2023-04-15T18:44:07.748Z,95719.72
2023-04-15T18:46:34.722Z,95671.00
2023-04-15T18:49:01.691Z,95694.41
2023-04-15T18:51:28.663Z,95679.50
2023-04-15T18:53:55.915Z,95736.38
2023-04-15T18:56:22.869Z,95733.91
2023-04-15T18:59:27.624Z,95744.41
2023-04-15T19:01:37.244Z,95732.22
2023-04-15T19:04:04.323Z,95683.63
2023-04-15T19:06:31.273Z,95718.00
2023-04-15T19:08:58.818Z,95737.16
2023-04-15T19:11:26.393Z,95752.59
2023-04-15T19:13:53.829Z,95724.19
2023-04-15T19:16:21.270Z,95749.34
2023-04-15T19:18:48.177Z,95744.13
2023-04-15T19:21:15.751Z,95751.19
2023-04-15T19:23:45.541Z,95760.63
2023-04-15T19:26:12.661Z,95764.78
2023-04-15T19:28:39.665Z,95780.69
2023-04-15T19:31:06.929Z,95770.50
2023-04-15T19:33:34.660Z,95786.84
2023-04-15T19:36:04.280Z,95793.00
2023-04-15T19:38:31.958Z,95784.19
2023-04-15T19:40:59.407Z,95745.31
2023-04-15T19:43:26.333Z,95741.75
2023-04-15T19:45:54.938Z,95764.44
2023-04-15T19:48:23.342Z,95772.78
2023-04-15T19:50:50.706Z,95782.50
2023-04-15T19:53:17.821Z,95790.69
2023-04-15T19:55:44.780Z,95763.34
2023-04-15T19:58:11.808Z,95776.47
2023-04-15T20:00:38.925Z,95769.81
2023-04-15T20:03:06.016Z,95745.28
2023-04-15T20:05:33.221Z,95750.38
2023-04-15T20:08:01.741Z,95785.13
2023-04-15T20:10:28.823Z,95786.34
2023-04-15T20:12:55.781Z,95774.78
2023-04-15T20:15:24.202Z,95810.16
2023-04-15T20:17:51.451Z,95784.38
2023-04-15T20:20:18.820Z,95816.03
2023-04-15T20:22:45.800Z,95806.28
2023-04-15T20:25:12.927Z,95806.47
2023-04-15T20:27:39.959Z,95814.16
2023-04-15T20:30:07.661Z,95806.31
2023-04-15T20:32:36.236Z,95769.38
2023-04-15T20:35:05.856Z,95783.75
2023-04-15T20:37:33.860Z,95813.88
2023-04-15T20:40:01.536Z,95820.66
2023-04-15T20:42:32.324Z,95814.78
2023-04-15T20:44:59.268Z,95790.84
2023-04-15T20:47:26.493Z,95784.06
2023-04-15T20:49:54.110Z,95797.03
2023-04-15T20:52:21.033Z,95794.69
2023-04-15T20:54:47.889Z,95816.03
2023-04-15T20:57:14.918Z,95823.28
2023-04-15T20:59:41.806Z,95781.25
2023-04-15T21:02:08.830Z,95827.91
2023-04-15T21:04:36.082Z,95803.19
2023-04-15T21:07:02.991Z,95799.03
2023-04-15T21:09:30.062Z,95815.22
2023-04-15T21:12:01.483Z,95825.28
2023-04-15T21:14:29.513Z,95838.56
2023-04-15T21:16:59.759Z,95813.66
2023-04-15T21:19:26.678Z,95813.97
2023-04-15T21:21:53.558Z,95831.63
2023-04-15T21:24:20.517Z,95824.78
2023-04-15T21:26:47.406Z,95783.56
2023-04-15T21:29:14.609Z,95791.31
2023-04-15T21:31:42.114Z,95861.25
2023-04-15T21:34:09.688Z,95849.78
2023-04-15T21:36:37.806Z,95826.31
2023-04-15T21:39:05.481Z,95870.50
2023-04-15T21:41:32.956Z,95852.88
2023-04-15T21:43:59.877Z,95852.25
2023-04-15T21:46:32.880Z,95859.03
2023-04-15T21:49:02.489Z,95850.84
2023-04-15T21:51:29.382Z,95847.59
2023-04-15T21:53:56.325Z,95845.56
2023-04-15T21:56:24.472Z,95850.81
2023-04-15T21:58:59.360Z,95850.03
2023-04-15T22:01:26.999Z,95858.88
2023-04-15T22:03:54.231Z,95853.28
2023-04-15T22:06:21.688Z,95844.50
2023-04-15T22:08:56.704Z,95858.56
2023-04-15T22:11:30.524Z,95873.22
2023-04-15T22:13:58.621Z,95880.00
2023-04-15T22:16:28.683Z,95848.78
2023-04-15T22:18:56.280Z,95870.09
2023-04-15T22:21:24.135Z,95871.19
2023-04-15T22:23:51.618Z,95893.25
2023-04-15T22:26:18.499Z,95862.06
2023-04-15T22:28:45.572Z,95864.53
2023-04-15T22:31:12.446Z,95876.44
2023-04-15T22:33:39.292Z,95902.41
2023-04-15T22:36:06.486Z,95874.28
2023-04-15T22:38:33.693Z,95915.56
2023-04-15T22:41:00.603Z,95906.78
2023-04-15T22:43:27.862Z,95888.31
2023-04-15T22:45:55.305Z,95876.75
2023-04-15T22:48:22.956Z,95895.47
2023-04-15T22:50:50.294Z,95913.41
2023-04-15T22:53:18.002Z,95933.47
2023-04-15T22:55:47.087Z,95909.97
2023-04-15T22:58:15.123Z,95911.19
2023-04-15T23:00:42.213Z,95929.78
2023-04-15T23:03:09.412Z,95904.91
2023-04-15T23:05:36.745Z,95916.66
2023-04-15T23:08:03.792Z,95941.38
2023-04-15T23:10:30.819Z,95936.91
2023-04-15T23:12:57.675Z,95932.84
2023-04-15T23:15:25.021Z,95898.06
2023-04-15T23:17:52.129Z,95935.94
2023-04-15T23:20:19.080Z,95890.75
2023-04-15T23:22:46.119Z,95917.81
2023-04-15T23:25:13.015Z,95929.72
2023-04-15T23:27:39.864Z,95932.00
2023-04-15T23:30:07.497Z,95908.69
2023-04-15T23:32:34.416Z,95932.91
2023-04-15T23:35:01.285Z,95908.50
2023-04-15T23:37:30.838Z,95910.78
2023-04-15T23:39:57.724Z,95911.88
2023-04-15T23:42:24.951Z,95936.16
2023-04-15T23:44:51.996Z,95919.75
2023-04-15T23:47:18.875Z,95910.66
2023-04-15T23:49:45.919Z,95933.94
2023-04-15T23:52:12.826Z,95923.44
2023-04-15T23:54:40.008Z,95932.50
2023-04-15T23:57:06.879Z,95913.38
2023-04-15T23:59:33.869Z,95915.91
